createdAt,value
2019-02-05T00:00:40.413Z,76.18
2019-02-05T00:03:11.570Z,77.31
2019-02-05T00:05:39.917Z,77.98
2019-02-05T00:08:08.301Z,78.17
2019-02-05T00:10:36.849Z,78.49
2019-02-05T00:13:06.051Z,79.28
2019-02-05T00:15:34.698Z,79.88
2019-02-05T00:18:03.080Z,80.77
2019-02-05T00:20:31.454Z,81.82
2019-02-05T00:22:59.844Z,82.75
2019-02-05T00:25:28.237Z,82.75
2019-02-05T00:27:56.615Z,82.77
2019-02-05T00:30:25.362Z,82.33
2019-02-05T00:32:53.819Z,82.23
2019-02-05T00:35:22.192Z,82.23
2019-02-05T00:37:50.570Z,82.78
2019-02-05T00:40:19.029Z,83.28
2019-02-05T00:42:47.407Z,82.93
2019-02-05T00:45:18.299Z,82.70
2019-02-05T00:47:46.685Z,83.21
2019-02-05T00:50:17.089Z,83.35
2019-02-05T00:52:45.745Z,83.48
2019-02-05T00:55:19.078Z,84.24
2019-02-05T00:57:47.731Z,84.41
2019-02-05T01:00:27.991Z,84.42
2019-02-05T01:02:56.444Z,84.46
2019-02-05T01:05:25.258Z,84.49
2019-02-05T01:07:53.806Z,84.83
2019-02-05T01:10:23.526Z,85.52
2019-02-05T01:12:52.927Z,85.40
2019-02-05T01:15:23.339Z,85.60
2019-02-05T01:17:51.895Z,85.65
2019-02-05T01:20:21.412Z,86.19
2019-02-05T01:22:50.068Z,86.49
2019-02-05T01:25:19.778Z,86.50
2019-02-05T01:27:48.580Z,86.01
2019-02-05T01:30:19.903Z,85.80
2019-02-05T01:32:48.282Z,86.30
2019-02-05T01:35:16.659Z,86.17
2019-02-05T01:37:45.044Z,85.84
2019-02-05T01:40:16.327Z,86.00
2019-02-05T01:42:45.086Z,85.92
2019-02-05T01:45:15.803Z,86.31
2019-02-05T01:47:44.371Z,86.18
2019-02-05T01:50:21.333Z,85.95
2019-02-05T01:52:49.718Z,85.54
2019-02-05T01:55:18.541Z,85.30
2019-02-05T01:57:47.190Z,85.32
2019-02-05T02:00:20.805Z,84.98
2019-02-05T02:02:49.264Z,84.54
2019-02-05T02:05:17.640Z,84.51
2019-02-05T02:07:46.255Z,83.98
2019-02-05T02:10:17.956Z,84.42
2019-02-05T02:12:46.666Z,84.96
2019-02-05T02:15:15.123Z,84.78
2019-02-05T02:17:43.590Z,84.47
2019-02-05T02:20:14.664Z,84.48
2019-02-05T02:22:43.109Z,84.50
2019-02-05T02:25:12.616Z,85.14
2019-02-05T02:27:41.135Z,84.60
2019-02-05T02:30:15.099Z,84.50
2019-02-05T02:32:43.471Z,84.28
2019-02-05T02:35:12.129Z,84.61
2019-02-05T02:37:40.504Z,84.84
2019-02-05T02:40:10.605Z,84.73
2019-02-05T02:42:38.990Z,84.78
2019-02-05T02:45:10.593Z,84.73
2019-02-05T02:47:38.963Z,84.66
2019-02-05T02:50:13.398Z,84.54
2019-02-05T02:52:41.782Z,84.81
2019-02-05T02:55:10.421Z,85.51
2019-02-05T02:57:38.861Z,85.88
2019-02-05T03:00:13.272Z,86.35
2019-02-05T03:02:42.019Z,86.16
2019-02-05T03:05:12.557Z,85.75
2019-02-05T03:07:40.930Z,85.58
2019-02-05T03:10:15.412Z,85.57
2019-02-05T03:12:43.795Z,86.47
2019-02-05T03:15:12.525Z,86.21
2019-02-05T03:17:40.900Z,86.14
2019-02-05T03:20:12.609Z,85.90
2019-02-05T03:22:41.097Z,86.44
2019-02-05T03:25:18.798Z,86.72
2019-02-05T03:27:47.482Z,86.98
2019-02-05T03:30:21.829Z,86.82
2019-02-05T03:32:50.442Z,87.44
2019-02-05T03:35:19.366Z,87.51
2019-02-05T03:37:47.821Z,87.23
2019-02-05T03:40:31.734Z,86.90
2019-02-05T03:43:00.287Z,87.37
2019-02-05T03:45:31.707Z,87.26
2019-02-05T03:48:02.625Z,86.88
2019-02-05T03:50:33.495Z,86.84
2019-02-05T03:53:20.223Z,86.74
2019-02-05T03:56:00.676Z,86.55
2019-02-05T03:58:32.107Z,86.55
2019-02-05T04:01:09.593Z,86.23
2019-02-05T04:03:46.752Z,86.42
2019-02-05T04:06:24.001Z,86.87
2019-02-05T04:09:01.407Z,86.96
2019-02-05T04:11:35.575Z,87.47
2019-02-05T04:14:09.804Z,86.76
2019-02-05T04:17:12.966Z,86.87
2019-02-05T04:20:07.316Z,86.08
2019-02-05T04:22:50.940Z,86.29
2019-02-05T04:25:42.792Z,87.42
2019-02-05T04:28:41.493Z,87.73
2019-02-05T04:31:18.619Z,88.17
2019-02-05T04:34:11.010Z,87.62
2019-02-05T04:36:48.475Z,87.27
2019-02-05T04:39:22.862Z,87.70
2019-02-05T04:42:06.302Z,87.51
2019-02-05T04:44:40.756Z,86.85
2019-02-05T04:47:14.969Z,86.35
2019-02-05T04:49:55.235Z,85.84
2019-02-05T04:52:49.253Z,86.11
2019-02-05T04:55:29.035Z,86.05
2019-02-05T04:58:17.288Z,86.01
2019-02-05T05:01:06.857Z,86.96
2019-02-05T05:03:47.287Z,86.60
2019-02-05T05:06:43.001Z,86.99
2019-02-05T05:09:14.420Z,87.21
2019-02-05T05:11:42.814Z,87.99
2019-02-05T05:14:11.192Z,87.73
2019-02-05T05:16:39.583Z,87.26
2019-02-05T05:19:08.131Z,87.04
2019-02-05T05:21:36.908Z,87.17
2019-02-05T05:24:05.484Z,86.67
2019-02-05T05:26:33.890Z,87.42
2019-02-05T05:29:02.344Z,87.90
2019-02-05T05:31:30.727Z,88.00
2019-02-05T05:33:59.171Z,87.95
2019-02-05T05:36:27.672Z,87.84
2019-02-05T05:38:56.318Z,87.91
2019-02-05T05:41:24.708Z,87.87
2019-02-05T05:43:53.134Z,88.13
2019-02-05T05:46:21.512Z,88.57
2019-02-05T05:48:49.890Z,88.33
2019-02-05T05:51:18.379Z,88.26
2019-02-05T05:53:46.772Z,87.87
2019-02-05T05:56:15.665Z,87.53
2019-02-05T05:58:44.040Z,87.75
2019-02-05T06:01:12.427Z,88.15
2019-02-05T06:03:40.978Z,88.10
2019-02-05T06:06:09.342Z,87.97
2019-02-05T06:08:37.793Z,87.76
2019-02-05T06:11:06.182Z,88.43
2019-02-05T06:13:34.733Z,88.28
2019-02-05T06:16:03.129Z,87.54
2019-02-05T06:18:31.499Z,87.37
2019-02-05T06:20:59.883Z,87.89
2019-02-05T06:23:28.269Z,88.25
2019-02-05T06:25:56.643Z,87.97
2019-02-05T06:28:34.232Z,88.24
2019-02-05T06:30:55.154Z,88.03
2019-02-05T06:33:23.687Z,87.69
2019-02-05T06:35:52.126Z,87.50
2019-02-05T06:38:20.459Z,87.88
2019-02-05T06:40:48.844Z,87.66
2019-02-05T06:43:17.228Z,88.20
2019-02-05T06:45:45.614Z,89.32
2019-02-05T06:48:14.478Z,89.44
2019-02-05T06:50:42.853Z,89.73
2019-02-05T06:53:11.235Z,89.11
2019-02-05T06:55:39.613Z,89.07
2019-02-05T06:58:08.000Z,89.67
2019-02-05T07:00:36.380Z,89.23
2019-02-05T07:03:05.208Z,89.36
2019-02-05T07:05:33.967Z,89.96
2019-02-05T07:08:02.348Z,90.30
2019-02-05T07:10:30.729Z,90.03
2019-02-05T07:12:59.117Z,89.21
2019-02-05T07:15:27.532Z,89.10
2019-02-05T07:17:55.917Z,89.54
2019-02-05T07:20:24.298Z,89.28
2019-02-05T07:22:55.611Z,90.15
2019-02-05T07:25:23.228Z,89.84
2019-02-05T07:27:51.611Z,90.38
2019-02-05T07:30:25.289Z,90.87
2019-02-05T07:32:53.773Z,91.09
2019-02-05T07:35:22.344Z,91.14
2019-02-05T07:37:50.733Z,90.96
2019-02-05T07:40:21.696Z,91.05
2019-02-05T07:42:50.328Z,90.81
2019-02-05T07:45:21.393Z,91.22
2019-02-05T07:47:49.785Z,91.01
2019-02-05T07:50:26.768Z,90.62
2019-02-05T07:52:55.631Z,90.51
2019-02-05T07:55:24.450Z,91.29
2019-02-05T07:57:52.838Z,91.03
2019-02-05T08:00:24.003Z,90.66
2019-02-05T08:02:52.385Z,89.78
2019-02-05T08:05:34.442Z,90.17
2019-02-05T08:08:03.671Z,90.63
2019-02-05T08:10:32.324Z,90.88
2019-02-05T08:13:00.778Z,90.71
2019-02-05T08:15:31.738Z,90.50
2019-02-05T08:18:00.395Z,90.03
2019-02-05T08:20:29.114Z,90.10
2019-02-05T08:22:57.589Z,90.23
2019-02-05T08:25:25.964Z,89.79
2019-02-05T08:27:54.789Z,90.34
2019-02-05T08:30:28.683Z,90.80
2019-02-05T08:32:57.056Z,90.94
2019-02-05T08:35:25.443Z,90.97
2019-02-05T08:37:53.814Z,90.45
2019-02-05T08:40:23.443Z,90.00
2019-02-05T08:42:51.830Z,89.23
2019-02-05T08:45:22.727Z,89.15
2019-02-05T08:47:51.380Z,89.06
2019-02-05T08:50:22.108Z,88.77
2019-02-05T08:52:50.654Z,88.39
2019-02-05T08:55:20.584Z,88.32
2019-02-05T08:57:50.405Z,88.28
2019-02-05T09:00:21.132Z,88.16
2019-02-05T09:02:49.884Z,88.21
2019-02-05T09:05:18.272Z,87.99
2019-02-05T09:07:46.648Z,87.93
2019-02-05T09:10:29.441Z,88.71
2019-02-05T09:12:57.819Z,87.93
2019-02-05T09:15:29.507Z,87.50
2019-02-05T09:17:57.389Z,87.87
2019-02-05T09:20:25.772Z,87.54
2019-02-05T09:22:55.687Z,87.45
2019-02-05T09:25:24.077Z,88.11
2019-02-05T09:27:52.464Z,87.72
2019-02-05T09:30:26.652Z,87.45
2019-02-05T09:32:57.644Z,88.20
2019-02-05T09:35:26.034Z,87.94
2019-02-05T09:37:57.572Z,87.69
2019-02-05T09:40:31.802Z,87.21
2019-02-05T09:43:00.279Z,87.25
2019-02-05T09:45:30.287Z,88.21
2019-02-05T09:47:59.499Z,88.50
2019-02-05T09:50:30.798Z,88.33
2019-02-05T09:52:58.348Z,87.57
2019-02-05T09:55:27.016Z,87.15
2019-02-05T09:57:55.353Z,87.09
2019-02-05T10:00:29.298Z,87.60
2019-02-05T10:02:58.122Z,87.83
2019-02-05T10:05:31.971Z,87.57
2019-02-05T10:08:00.356Z,87.61
2019-02-05T10:10:28.750Z,87.47
2019-02-05T10:12:57.295Z,87.81
2019-02-05T10:15:28.016Z,88.55
2019-02-05T10:17:56.490Z,88.56
2019-02-05T10:20:25.408Z,88.51
2019-02-05T10:22:55.591Z,88.36
2019-02-05T10:25:23.979Z,88.60
2019-02-05T10:27:52.524Z,88.79
2019-02-05T10:30:29.204Z,88.04
2019-02-05T10:32:57.578Z,88.45
2019-02-05T10:35:26.089Z,88.62
2019-02-05T10:37:54.601Z,88.49
2019-02-05T10:40:24.518Z,88.78
2019-02-05T10:42:53.443Z,88.61
2019-02-05T10:45:24.331Z,88.13
2019-02-05T10:47:52.720Z,88.65
2019-02-05T10:50:21.782Z,88.34
2019-02-05T10:52:50.349Z,87.84
2019-02-05T10:55:20.730Z,88.45
2019-02-05T10:57:52.036Z,89.44
2019-02-05T11:00:25.105Z,89.36
2019-02-05T11:02:53.737Z,88.69
2019-02-05T11:05:24.631Z,88.43
2019-02-05T11:07:53.279Z,88.62
2019-02-05T11:10:21.758Z,88.46
2019-02-05T11:12:50.388Z,88.59
2019-02-05T11:15:27.640Z,89.21
2019-02-05T11:17:56.029Z,89.03
2019-02-05T11:20:26.353Z,88.48
2019-02-05T11:22:54.740Z,88.53
2019-02-05T11:25:23.392Z,88.55
2019-02-05T11:27:51.992Z,88.95
2019-02-05T11:30:35.113Z,88.43
2019-02-05T11:33:03.977Z,88.03
2019-02-05T11:35:32.799Z,88.20
2019-02-05T11:38:01.352Z,87.84
2019-02-05T11:40:34.752Z,87.58
2019-02-05T11:43:03.146Z,87.28
2019-02-05T11:45:31.877Z,87.17
2019-02-05T11:48:02.398Z,87.45
2019-02-05T11:50:31.242Z,87.83
2019-02-05T11:52:59.627Z,88.63
2019-02-05T11:55:31.052Z,89.59
2019-02-05T11:57:59.442Z,89.43
2019-02-05T12:00:33.197Z,88.63
2019-02-05T12:03:01.695Z,88.37
2019-02-05T12:05:30.398Z,87.82
2019-02-05T12:07:59.058Z,88.04
2019-02-05T12:13:35.506Z,87.78
2019-02-05T12:16:24.716Z,87.81
2019-02-05T12:19:12.225Z,87.57
2019-02-05T12:21:40.602Z,87.74
2019-02-05T12:24:10.707Z,87.56
2019-02-05T12:26:39.094Z,87.94
2019-02-05T12:29:26.618Z,88.12
2019-02-05T12:31:55.007Z,87.98
2019-02-05T12:36:57.289Z,88.59
2019-02-05T12:39:44.932Z,88.51
2019-02-05T12:42:13.324Z,87.91
2019-02-05T12:45:00.883Z,87.55
2019-02-05T12:47:29.335Z,87.34
2019-02-05T12:49:57.728Z,87.05
2019-02-05T12:52:26.219Z,86.16
2019-02-05T12:55:16.318Z,85.57
2019-02-05T12:58:23.864Z,85.48
2019-02-05T13:01:01.385Z,85.85
2019-02-05T13:03:22.356Z,85.44
2019-02-05T13:06:30.694Z,84.91
2019-02-05T13:08:59.033Z,84.76
2019-02-05T13:11:29.128Z,84.66
2019-02-05T13:13:57.511Z,85.08
2019-02-05T13:16:38.651Z,84.43
2019-02-05T13:21:41.430Z,84.56
2019-02-05T13:24:49.754Z,83.93
2019-02-05T13:27:37.374Z,84.22
2019-02-05T13:30:45.674Z,84.64
2019-02-05T13:33:55.701Z,83.94
2019-02-05T13:39:51.671Z,84.03
2019-02-05T13:42:20.055Z,84.73
2019-02-05T13:47:41.465Z,85.05
2019-02-05T13:50:49.756Z,84.67
2019-02-05T13:53:37.388Z,84.26
2019-02-05T13:56:45.694Z,83.66
2019-02-05T13:59:14.181Z,83.40
2019-02-05T14:02:01.894Z,83.53
2019-02-05T14:04:30.377Z,83.11
2019-02-05T14:07:18.101Z,83.04
2019-02-05T14:10:05.602Z,83.20
2019-02-05T14:12:33.991Z,82.57
2019-02-05T14:15:02.380Z,83.25
2019-02-05T14:17:30.753Z,83.43
2019-02-05T14:20:18.496Z,83.56
2019-02-05T14:28:09.782Z,84.45
2019-02-05T14:31:18.113Z,84.71
2019-02-05T14:33:46.492Z,84.44
2019-02-05T14:36:54.785Z,83.88
2019-02-05T14:39:23.191Z,83.74
2019-02-05T14:41:51.584Z,83.12
2019-02-05T14:44:19.960Z,82.89
2019-02-05T14:46:50.060Z,82.49
2019-02-05T14:49:18.451Z,82.25
2019-02-05T14:52:06.076Z,82.57
2019-02-05T14:54:34.464Z,82.69
2019-02-05T15:00:52.542Z,81.88
2019-02-05T15:03:20.919Z,82.34
2019-02-05T15:05:49.302Z,82.11
2019-02-05T15:08:17.682Z,82.48
2019-02-05T15:11:05.315Z,82.29
2019-02-05T15:13:33.698Z,82.35
2019-02-05T15:16:21.331Z,82.90
2019-02-05T15:18:49.712Z,83.70
2019-02-05T15:21:19.818Z,83.55
2019-02-05T15:24:07.443Z,83.74
2019-02-05T15:26:35.834Z,83.75
2019-02-05T15:29:23.455Z,84.32
2019-02-05T15:31:54.694Z,85.01
2019-02-05T15:34:21.942Z,85.03
2019-02-05T15:36:50.325Z,84.65
2019-02-05T15:39:38.001Z,84.52
2019-02-05T15:42:25.522Z,85.04
2019-02-05T15:44:53.899Z,84.62
2019-02-05T15:47:41.410Z,85.64
2019-02-05T15:50:49.691Z,85.44
2019-02-05T15:56:45.424Z,85.14
2019-02-05T15:59:13.816Z,85.39
2019-02-05T16:01:42.435Z,85.50
2019-02-05T16:04:10.804Z,84.85
2019-02-05T16:06:58.396Z,85.12
2019-02-05T16:09:26.762Z,84.81
2019-02-05T16:11:55.148Z,84.18
2019-02-05T16:14:23.530Z,84.96
2019-02-05T16:17:11.159Z,84.37
2019-02-05T16:19:39.536Z,84.17
2019-02-05T16:22:28.887Z,85.17
2019-02-05T16:24:57.268Z,85.62
2019-02-05T16:27:25.662Z,85.56
2019-02-05T16:35:36.166Z,85.57
2019-02-05T16:38:44.458Z,86.02
2019-02-05T16:41:12.846Z,85.57
2019-02-05T16:44:00.337Z,84.59
2019-02-05T16:46:47.966Z,84.25
2019-02-05T16:49:16.348Z,84.66
2019-02-05T16:52:03.852Z,84.48
2019-02-05T16:57:19.688Z,84.17
2019-02-05T16:59:48.062Z,84.20
2019-02-05T17:02:35.703Z,83.59
2019-02-05T17:05:44.007Z,83.96
2019-02-05T17:08:31.672Z,84.23
2019-02-05T17:11:00.060Z,85.06
2019-02-05T17:14:08.339Z,84.80
2019-02-05T17:16:36.723Z,84.77
2019-02-05T17:19:05.171Z,84.77
2019-02-05T17:21:33.555Z,85.08
2019-02-05T17:24:21.179Z,84.83
2019-02-05T17:26:49.571Z,84.77
2019-02-05T17:29:37.198Z,85.15
2019-02-05T17:32:45.502Z,84.49
2019-02-05T17:35:53.804Z,84.76
2019-02-05T17:38:22.183Z,84.38
2019-02-05T17:41:09.687Z,84.53
2019-02-05T17:43:38.330Z,84.57
2019-02-05T17:46:08.448Z,84.53
2019-02-05T17:48:36.839Z,84.26
2019-02-05T17:51:24.342Z,84.64
2019-02-05T17:53:52.723Z,84.19
2019-02-05T17:56:40.360Z,84.15
2019-02-05T17:59:27.988Z,84.59
2019-02-05T18:02:15.721Z,84.46
2019-02-05T18:05:03.217Z,84.14
2019-02-05T18:07:51.006Z,84.41
2019-02-05T18:10:41.698Z,84.75
2019-02-05T18:13:08.834Z,85.05
2019-02-05T18:16:17.360Z,84.65
2019-02-05T18:18:45.749Z,85.01
2019-02-05T18:21:14.434Z,85.17
2019-02-05T18:23:42.832Z,85.36
2019-02-05T18:29:17.912Z,85.15
2019-02-05T18:31:46.299Z,85.36
2019-02-05T18:34:15.065Z,85.59
2019-02-05T18:36:44.849Z,85.45
2019-02-05T18:39:32.343Z,85.48
2019-02-05T18:42:00.736Z,85.43
2019-02-05T18:44:48.364Z,85.74
2019-02-05T18:47:16.764Z,85.50
2019-02-05T18:50:04.386Z,85.71
2019-02-05T18:52:51.888Z,86.16
2019-02-05T18:56:00.177Z,86.33
2019-02-05T19:03:58.213Z,86.14
2019-02-05T19:06:45.840Z,85.90
2019-02-05T19:09:54.135Z,85.31
2019-02-05T19:12:22.611Z,85.53
2019-02-05T19:14:51.250Z,85.28
2019-02-05T19:17:19.807Z,84.95
2019-02-05T19:20:07.368Z,85.30
2019-02-05T19:22:56.763Z,85.42
2019-02-05T19:26:05.056Z,85.02
2019-02-05T19:39:50.641Z,83.55
2019-02-05T19:42:19.163Z,83.79
2019-02-05T19:49:58.541Z,83.33
2019-02-05T19:52:48.080Z,83.56
2019-02-05T19:58:23.137Z,83.69
2019-02-05T20:01:12.554Z,83.72
2019-02-05T20:03:41.016Z,84.09
2019-02-05T20:09:16.041Z,84.68
2019-02-05T20:11:44.411Z,84.75
2019-02-05T20:14:31.917Z,84.85
2019-02-05T20:17:19.551Z,84.76
2019-02-05T20:19:47.939Z,84.76
2019-02-05T20:27:58.203Z,84.52
2019-02-05T20:31:06.509Z,84.35
2019-02-05T20:33:54.085Z,84.07
2019-02-05T20:36:41.627Z,83.89
2019-02-05T20:39:49.973Z,83.60
2019-02-05T20:45:45.666Z,82.56
2019-02-05T20:48:15.998Z,82.24
2019-02-05T20:50:44.385Z,81.81
2019-02-05T20:53:31.962Z,81.86
2019-02-05T20:58:47.786Z,81.91
2019-02-05T21:01:16.171Z,81.87
2019-02-05T21:06:18.790Z,82.00
2019-02-05T21:08:47.180Z,82.00
2019-02-05T21:11:34.895Z,81.98
2019-02-05T21:14:22.539Z,81.84
2019-02-05T21:16:50.984Z,81.43
2019-02-05T21:19:38.847Z,81.44
2019-02-05T21:22:09.038Z,81.33
2019-02-05T21:27:10.921Z,82.72
2019-02-05T21:29:58.532Z,82.79
2019-02-05T21:32:27.018Z,82.88
2019-02-05T21:35:14.515Z,81.92
2019-02-05T21:40:50.984Z,81.36
2019-02-05T21:43:38.852Z,82.11
2019-02-05T21:46:26.604Z,81.75
2019-02-05T21:48:54.987Z,81.57
2019-02-05T21:51:42.610Z,81.14
2019-02-05T21:54:12.716Z,81.01
2019-02-05T21:57:00.210Z,81.55
2019-02-05T21:59:28.642Z,81.61
2019-02-05T22:01:57.039Z,81.51
2019-02-05T22:04:27.326Z,81.25
2019-02-05T22:06:55.527Z,81.04
2019-02-05T22:09:43.154Z,80.62
2019-02-05T22:12:11.543Z,80.83
2019-02-05T22:14:59.045Z,80.23
2019-02-05T22:17:27.445Z,79.45
2019-02-05T22:19:55.830Z,78.85
2019-02-05T22:26:10.911Z,78.54
2019-02-05T22:28:39.285Z,78.10
2019-02-05T22:31:07.730Z,78.43
2019-02-05T22:36:23.560Z,78.18
2019-02-05T22:39:11.188Z,78.85
2019-02-05T22:41:39.635Z,78.73
2019-02-05T22:46:55.464Z,78.16
2019-02-05T22:49:23.840Z,77.94
2019-02-05T22:51:53.949Z,77.97
2019-02-05T22:54:41.444Z,77.82
2019-02-05T22:57:09.831Z,77.51
2019-02-05T23:02:27.387Z,76.92
2019-02-05T23:05:35.684Z,76.59
2019-02-05T23:08:43.971Z,76.55
2019-02-05T23:11:50.949Z,77.51
2019-02-05T23:14:38.445Z,77.39
2019-02-05T23:17:46.747Z,78.11
2019-02-05T23:20:55.050Z,77.84
2019-02-05T23:24:03.347Z,78.10
2019-02-05T23:26:50.976Z,78.21
2019-02-05T23:29:38.600Z,78.14
2019-02-05T23:35:02.776Z,77.88
2019-02-05T23:37:31.967Z,78.57
2019-02-05T23:40:02.064Z,78.10
2019-02-05T23:43:10.368Z,77.53
2019-02-05T23:48:45.304Z,77.11
2019-02-05T23:51:13.691Z,77.52
2019-02-05T23:53:42.070Z,77.66
2019-02-05T23:56:12.175Z,77.51
2019-02-05T23:58:59.799Z,77.53
